sensor_id;sensor_type;location;lat;lon;timestamp;pressure;altitude;pressure_sealevel;temperature;humidity
5905;BME280;2978;42.012;24.880;2023-01-25T00:01:23;100172.59;;;4.25;84.44
5905;BME280;2978;42.012;24.880;2023-01-25T00:03:49;100201.13;;;4.29;84.45
5905;BME280;2978;42.012;24.880;2023-01-25T00:06:14;100203.19;;;4.27;85.48
5905;BME280;2978;42.012;24.880;2023-01-25T00:08:40;100193.63;;;4.04;86.31
5905;BME280;2978;42.012;24.880;2023-01-25T00:11:05;100187.09;;;3.98;86.46
5905;BME280;2978;42.012;24.880;2023-01-25T00:13:31;100197.28;;;3.90;87.35
5905;BME280;2978;42.012;24.880;2023-01-25T00:16:01;100193.34;;;3.92;87.65
5905;BME280;2978;42.012;24.880;2023-01-25T00:18:26;100199.78;;;3.91;87.55
5905;BME280;2978;42.012;24.880;2023-01-25T00:20:52;100205.22;;;3.91;88.26
5905;BME280;2978;42.012;24.880;2023-01-25T00:23:17;100197.28;;;3.90;88.52
5905;BME280;2978;42.012;24.880;2023-01-25T00:25:42;100205.22;;;3.91;88.07
5905;BME280;2978;42.012;24.880;2023-01-25T00:28:08;100201.88;;;3.89;88.65
5905;BME280;2978;42.012;24.880;2023-01-25T00:30:33;100209.00;;;3.90;88.31
5905;BME280;2978;42.012;24.880;2023-01-25T00:35:47;100203.59;;;3.97;88.49
5905;BME280;2978;42.012;24.880;2023-01-25T00:38:27;100205.28;;;3.98;89.23
5905;BME280;2978;42.012;24.880;2023-01-25T00:40:54;100195.66;;;3.95;89.95
5905;BME280;2978;42.012;24.880;2023-01-25T00:43:19;100195.72;;;4.08;90.11
5905;BME280;2978;42.012;24.880;2023-01-25T00:45:44;100202.22;;;4.07;90.06
5905;BME280;2978;42.012;24.880;2023-01-25T00:48:10;100205.97;;;4.06;89.77
5905;BME280;2978;42.012;24.880;2023-01-25T00:50:36;100202.81;;;4.03;90.30
5905;BME280;2978;42.012;24.880;2023-01-25T00:53:02;100199.06;;;4.04;90.77
5905;BME280;2978;42.012;24.880;2023-01-25T00:55:27;100204.31;;;4.05;90.09
5905;BME280;2978;42.012;24.880;2023-01-25T00:57:53;100203.13;;;3.87;90.16
5905;BME280;2978;42.012;24.880;2023-01-25T01:00:18;100196.44;;;3.68;90.51
5905;BME280;2978;42.012;24.880;2023-01-25T01:02:43;100199.38;;;3.67;91.44
5905;BME280;2978;42.012;24.880;2023-01-25T01:05:09;100202.53;;;3.70;91.65
5905;BME280;2978;42.012;24.880;2023-01-25T01:07:34;100199.06;;;3.76;92.14
5905;BME280;2978;42.012;24.880;2023-01-25T01:10:00;100192.59;;;3.84;91.57
5905;BME280;2978;42.012;24.880;2023-01-25T01:12:25;100201.13;;;3.74;90.66
5905;BME280;2978;42.012;24.880;2023-01-25T01:14:50;100195.94;;;3.79;90.67
5905;BME280;2978;42.012;24.880;2023-01-25T01:17:16;100193.38;;;3.71;91.28
5905;BME280;2978;42.012;24.880;2023-01-25T01:19:41;100175.81;;;3.53;90.87
5905;BME280;2978;42.012;24.880;2023-01-25T01:22:07;100183.66;;;3.62;91.68
5905;BME280;2978;42.012;24.880;2023-01-25T01:24:32;100188.69;;;3.65;91.50
5905;BME280;2978;42.012;24.880;2023-01-25T01:26:57;100184.16;;;3.72;91.56
5905;BME280;2978;42.012;24.880;2023-01-25T01:29:23;100171.31;;;3.66;91.46
5905;BME280;2978;42.012;24.880;2023-01-25T01:31:50;100175.50;;;3.62;91.22
5905;BME280;2978;42.012;24.880;2023-01-25T01:34:16;100170.72;;;3.64;90.87
5905;BME280;2978;42.012;24.880;2023-01-25T01:36:42;100173.94;;;3.74;91.29
5905;BME280;2978;42.012;24.880;2023-01-25T01:39:08;100185.50;;;3.83;90.48
5905;BME280;2978;42.012;24.880;2023-01-25T01:41:33;100182.09;;;3.74;89.75
5905;BME280;2978;42.012;24.880;2023-01-25T01:43:59;100172.19;;;3.67;89.49
5905;BME280;2978;42.012;24.880;2023-01-25T01:46:36;100165.31;;;3.71;89.24
5905;BME280;2978;42.012;24.880;2023-01-25T01:49:13;100156.06;;;3.65;89.28
5905;BME280;2978;42.012;24.880;2023-01-25T01:51:48;100169.84;;;3.64;89.19
5905;BME280;2978;42.012;24.880;2023-01-25T01:59:57;100175.63;;;3.54;92.01
5905;BME280;2978;42.012;24.880;2023-01-25T02:02:25;100164.81;;;3.61;91.18
5905;BME280;2978;42.012;24.880;2023-01-25T02:04:53;100169.25;;;3.68;89.86
5905;BME280;2978;42.012;24.880;2023-01-25T02:07:24;100171.53;;;3.65;89.56
5905;BME280;2978;42.012;24.880;2023-01-25T02:09:53;100168.59;;;3.66;88.42
5905;BME280;2978;42.012;24.880;2023-01-25T02:12:20;100169.25;;;3.68;88.66
5905;BME280;2978;42.012;24.880;2023-01-25T02:14:50;100173.47;;;3.71;87.33
5905;BME280;2978;42.012;24.880;2023-01-25T02:17:25;100163.16;;;3.66;86.59
5905;BME280;2978;42.012;24.880;2023-01-25T02:19:53;100165.66;;;3.61;86.82
5905;BME280;2978;42.012;24.880;2023-01-25T02:22:24;100165.28;;;3.64;86.07
5905;BME280;2978;42.012;24.880;2023-01-25T02:25:09;100166.16;;;3.71;85.91
5905;BME280;2978;42.012;24.880;2023-01-25T02:27:41;100154.44;;;3.71;86.73
5905;BME280;2978;42.012;24.880;2023-01-25T02:30:08;100159.03;;;3.70;86.34
5905;BME280;2978;42.012;24.880;2023-01-25T02:32:33;100162.59;;;3.71;86.98
5905;BME280;2978;42.012;24.880;2023-01-25T02:34:59;100156.13;;;3.72;86.78
5905;BME280;2978;42.012;24.880;2023-01-25T02:37:25;100167.44;;;3.75;87.33
5905;BME280;2978;42.012;24.880;2023-01-25T02:39:51;100157.66;;;3.81;87.08
5905;BME280;2978;42.012;24.880;2023-01-25T02:42:17;100162.25;;;3.80;86.54
5905;BME280;2978;42.012;24.880;2023-01-25T02:44:42;100167.44;;;3.75;86.15
5905;BME280;2978;42.012;24.880;2023-01-25T02:47:08;100164.47;;;3.70;86.16
5905;BME280;2978;42.012;24.880;2023-01-25T02:49:35;100170.81;;;3.77;85.34
5905;BME280;2978;42.012;24.880;2023-01-25T02:52:02;100163.69;;;3.76;84.89
5905;BME280;2978;42.012;24.880;2023-01-25T02:54:28;100165.84;;;3.87;84.71
5905;BME280;2978;42.012;24.880;2023-01-25T02:56:53;100162.06;;;3.82;84.72
5905;BME280;2978;42.012;24.880;2023-01-25T02:59:19;100162.53;;;3.85;84.71
5905;BME280;2978;42.012;24.880;2023-01-25T03:01:45;100156.72;;;3.95;84.25
5905;BME280;2978;42.012;24.880;2023-01-25T03:04:10;100165.13;;;4.00;84.22
5905;BME280;2978;42.012;24.880;2023-01-25T03:06:36;100159.22;;;3.96;84.12
5905;BME280;2978;42.012;24.880;2023-01-25T03:09:03;100156.28;;;3.91;84.56
5905;BME280;2978;42.012;24.880;2023-01-25T03:11:29;100167.16;;;3.91;84.75
5905;BME280;2978;42.012;24.880;2023-01-25T03:13:54;100170.81;;;3.77;85.02
5905;BME280;2978;42.012;24.880;2023-01-25T03:16:19;100164.91;;;3.74;85.28
5905;BME280;2978;42.012;24.880;2023-01-25T03:18:45;100157.72;;;3.66;85.68
5905;BME280;2978;42.012;24.880;2023-01-25T03:21:15;100157.69;;;3.60;86.13
5905;BME280;2978;42.012;24.880;2023-01-25T03:23:42;100156.91;;;3.66;86.17
5905;BME280;2978;42.012;24.880;2023-01-25T03:26:13;100165.28;;;3.64;86.54
5905;BME280;2978;42.012;24.880;2023-01-25T03:28:40;100152.47;;;3.37;87.60
5905;BME280;2978;42.012;24.880;2023-01-25T03:31:07;100151.50;;;3.23;88.19
5905;BME280;2978;42.012;24.880;2023-01-25T03:33:33;100150.28;;;3.26;88.50
5905;BME280;2978;42.012;24.880;2023-01-25T03:35:59;100157.78;;;3.24;88.23
5905;BME280;2978;42.012;24.880;2023-01-25T03:38:25;100151.16;;;3.33;88.26
5905;BME280;2978;42.012;24.880;2023-01-25T03:40:51;100154.47;;;3.28;88.14
5905;BME280;2978;42.012;24.880;2023-01-25T03:43:17;100156.44;;;3.34;87.92
5905;BME280;2978;42.012;24.880;2023-01-25T03:45:42;100149.44;;;3.25;88.12
5905;BME280;2978;42.012;24.880;2023-01-25T03:48:08;100159.41;;;3.18;88.23
5905;BME280;2978;42.012;24.880;2023-01-25T03:50:33;100154.81;;;3.19;89.02
5905;BME280;2978;42.012;24.880;2023-01-25T03:52:59;100156.97;;;3.09;89.07
5905;BME280;2978;42.012;24.880;2023-01-25T03:55:44;100157.06;;;3.15;89.12
5905;BME280;2978;42.012;24.880;2023-01-25T03:58:09;100161.91;;;3.20;89.04
5905;BME280;2978;42.012;24.880;2023-01-25T04:00:34;100166.31;;;3.21;88.66
5905;BME280;2978;42.012;24.880;2023-01-25T04:03:00;100158.53;;;3.18;88.07
5905;BME280;2978;42.012;24.880;2023-01-25T04:05:26;100161.53;;;3.23;87.67
5905;BME280;2978;42.012;24.880;2023-01-25T04:07:51;100158.44;;;3.26;87.60
5905;BME280;2978;42.012;24.880;2023-01-25T04:10:16;100158.16;;;3.21;87.97
5905;BME280;2978;42.012;24.880;2023-01-25T04:12:42;100158.53;;;3.18;88.57
5905;BME280;2978;42.012;24.880;2023-01-25T04:15:08;100159.34;;;3.12;88.95
5905;BME280;2978;42.012;24.880;2023-01-25T04:17:33;100163.47;;;3.08;88.06
5905;BME280;2978;42.012;24.880;2023-01-25T04:19:59;100171.41;;;3.09;88.75
5905;BME280;2978;42.012;24.880;2023-01-25T04:22:24;100176.78;;;3.03;88.44
5905;BME280;2978;42.012;24.880;2023-01-25T04:24:49;100175.03;;;3.16;88.00
5905;BME280;2978;42.012;24.880;2023-01-25T04:27:15;100177.47;;;3.26;87.41
5905;BME280;2978;42.012;24.880;2023-01-25T04:29:40;100175.63;;;3.33;86.61
5905;BME280;2978;42.012;24.880;2023-01-25T04:32:06;100178.34;;;3.33;86.19
5905;BME280;2978;42.012;24.880;2023-01-25T04:34:31;100176.28;;;3.35;86.48
5905;BME280;2978;42.012;24.880;2023-01-25T04:36:57;100181.13;;;3.18;87.11
5905;BME280;2978;42.012;24.880;2023-01-25T04:39:22;100187.03;;;3.22;87.73
5905;BME280;2978;42.012;24.880;2023-01-25T04:41:48;100182.44;;;3.22;88.39
5905;BME280;2978;42.012;24.880;2023-01-25T04:44:13;100174.84;;;3.18;87.76
5905;BME280;2978;42.012;24.880;2023-01-25T04:46:38;100180.16;;;3.05;87.35
5905;BME280;2978;42.012;24.880;2023-01-25T04:49:04;100172.56;;;3.00;87.20
5905;BME280;2978;42.012;24.880;2023-01-25T04:51:29;100173.53;;;3.14;88.07
5905;BME280;2978;42.012;24.880;2023-01-25T04:53:54;100170.81;;;3.14;87.26
5905;BME280;2978;42.012;24.880;2023-01-25T04:56:20;100177.75;;;3.16;87.36
5905;BME280;2978;42.012;24.880;2023-01-25T04:58:45;100179.88;;;3.21;86.60
5905;BME280;2978;42.012;24.880;2023-01-25T05:01:11;100173.31;;;3.30;86.03
5905;BME280;2978;42.012;24.880;2023-01-25T05:03:36;100168.22;;;3.41;86.22
5905;BME280;2978;42.012;24.880;2023-01-25T05:06:02;100172.59;;;3.42;85.58
5905;BME280;2978;42.012;24.880;2023-01-25T05:08:27;100175.97;;;3.23;85.54
5905;BME280;2978;42.012;24.880;2023-01-25T05:10:52;100174.00;;;3.17;85.97
5905;BME280;2978;42.012;24.880;2023-01-25T05:13:18;100176.16;;;3.22;85.89
5905;BME280;2978;42.012;24.880;2023-01-25T05:15:43;100182.03;;;3.25;85.47
5905;BME280;2978;42.012;24.880;2023-01-25T05:18:09;100183.72;;;3.26;85.21
5905;BME280;2978;42.012;24.880;2023-01-25T05:20:34;100187.94;;;3.29;84.79
5905;BME280;2978;42.012;24.880;2023-01-25T05:23:00;100191.09;;;3.32;84.23
5905;BME280;2978;42.012;24.880;2023-01-25T05:25:25;100186.38;;;3.20;84.29
5905;BME280;2978;42.012;24.880;2023-01-25T05:28:09;100184.09;;;3.23;84.61
5905;BME280;2978;42.012;24.880;2023-01-25T05:30:35;100168.75;;;3.16;84.05
5905;BME280;2978;42.012;24.880;2023-01-25T05:33:00;100187.78;;;3.16;84.77
5905;BME280;2978;42.012;24.880;2023-01-25T05:35:26;100184.31;;;3.22;83.91
5905;BME280;2978;42.012;24.880;2023-01-25T05:37:58;100184.56;;;3.27;83.56
5905;BME280;2978;42.012;24.880;2023-01-25T05:40:24;100182.97;;;3.32;82.69
5905;BME280;2978;42.012;24.880;2023-01-25T05:42:57;100186.94;;;3.36;82.18
5905;BME280;2978;42.012;24.880;2023-01-25T05:45:23;100186.63;;;3.46;82.41
5905;BME280;2978;42.012;24.880;2023-01-25T05:47:55;100193.66;;;3.19;82.45
5905;BME280;2978;42.012;24.880;2023-01-25T05:50:23;100186.81;;;3.23;82.43
5905;BME280;2978;42.012;24.880;2023-01-25T05:52:49;100194.28;;;3.36;81.66
5905;BME280;2978;42.012;24.880;2023-01-25T05:55:14;100199.38;;;3.45;80.95
5905;BME280;2978;42.012;24.880;2023-01-25T05:57:40;100191.81;;;3.41;82.03
5905;BME280;2978;42.012;24.880;2023-01-25T06:00:06;100196.81;;;3.59;80.71
5905;BME280;2978;42.012;24.880;2023-01-25T06:02:32;100192.31;;;3.72;80.36
5905;BME280;2978;42.012;24.880;2023-01-25T06:04:57;100202.50;;;3.91;78.95
5905;BME280;2978;42.012;24.880;2023-01-25T06:07:23;100201.13;;;4.02;78.76
5905;BME280;2978;42.012;24.880;2023-01-25T06:09:49;100209.50;;;4.00;79.06
5905;BME280;2978;42.012;24.880;2023-01-25T06:12:14;100205.44;;;3.90;79.68
5905;BME280;2978;42.012;24.880;2023-01-25T06:14:41;100204.22;;;3.92;79.65
5905;BME280;2978;42.012;24.880;2023-01-25T06:17:07;100204.91;;;4.01;79.13
5905;BME280;2978;42.012;24.880;2023-01-25T06:19:32;100198.00;;;4.05;79.69
5905;BME280;2978;42.012;24.880;2023-01-25T06:21:58;100206.25;;;4.11;78.89
5905;BME280;2978;42.012;24.880;2023-01-25T06:24:23;100201.13;;;4.02;79.10
5905;BME280;2978;42.012;24.880;2023-01-25T06:26:49;100201.88;;;4.17;78.82
5905;BME280;2978;42.012;24.880;2023-01-25T06:29:14;100205.28;;;4.25;78.24
5905;BME280;2978;42.012;24.880;2023-01-25T06:31:39;100200.22;;;4.22;78.01
5905;BME280;2978;42.012;24.880;2023-01-25T06:34:39;100200.44;;;4.21;77.94
5905;BME280;2978;42.012;24.880;2023-01-25T06:37:04;100206.63;;;4.08;78.15
5905;BME280;2978;42.012;24.880;2023-01-25T06:39:30;100206.38;;;4.03;78.90
5905;BME280;2978;42.012;24.880;2023-01-25T06:41:55;100204.25;;;3.99;78.76
5905;BME280;2978;42.012;24.880;2023-01-25T06:44:20;100200.47;;;4.00;78.93
5905;BME280;2978;42.012;24.880;2023-01-25T06:46:46;100210.28;;;3.94;78.61
5905;BME280;2978;42.012;24.880;2023-01-25T06:49:11;100209.81;;;3.91;78.97
5905;BME280;2978;42.012;24.880;2023-01-25T06:51:37;100204.22;;;3.92;80.08
5905;BME280;2978;42.012;24.880;2023-01-25T06:54:02;100216.72;;;4.14;79.31
5905;BME280;2978;42.012;24.880;2023-01-25T06:56:58;100208.41;;;4.22;79.04
5905;BME280;2978;42.012;24.880;2023-01-25T06:59:24;100198.69;;;4.13;79.44
5905;BME280;2978;42.012;24.880;2023-01-25T07:01:49;100197.03;;;4.12;79.12
5905;BME280;2978;42.012;24.880;2023-01-25T07:04:15;100192.63;;;4.11;79.23
5905;BME280;2978;42.012;24.880;2023-01-25T07:06:40;100203.56;;;4.18;79.06
5905;BME280;2978;42.012;24.880;2023-01-25T07:09:07;100203.81;;;4.23;78.66
5905;BME280;2978;42.012;24.880;2023-01-25T07:11:34;100218.53;;;4.35;78.95
5905;BME280;2978;42.012;24.880;2023-01-25T07:14:00;100211.06;;;4.16;78.87
5905;BME280;2978;42.012;24.880;2023-01-25T07:16:25;100210.63;;;4.12;79.05
5905;BME280;2978;42.012;24.880;2023-01-25T07:18:51;100209.22;;;4.16;78.72
5905;BME280;2978;42.012;24.880;2023-01-25T07:21:21;100204.59;;;4.17;79.13
5905;BME280;2978;42.012;24.880;2023-01-25T07:23:50;100209.38;;;3.87;78.42
5905;BME280;2978;42.012;24.880;2023-01-25T07:26:23;100209.69;;;3.71;79.51
5905;BME280;2978;42.012;24.880;2023-01-25T07:28:49;100219.25;;;3.67;79.41
5905;BME280;2978;42.012;24.880;2023-01-25T07:31:16;100226.91;;;3.78;78.53
5905;BME280;2978;42.012;24.880;2023-01-25T07:33:42;100226.38;;;3.68;78.14
5905;BME280;2978;42.012;24.880;2023-01-25T07:36:09;100222.22;;;3.72;78.28
5905;BME280;2978;42.012;24.880;2023-01-25T07:38:35;100222.72;;;3.82;77.90
5905;BME280;2978;42.012;24.880;2023-01-25T07:41:01;100232.63;;;3.90;77.71
5905;BME280;2978;42.012;24.880;2023-01-25T07:43:27;100225.06;;;3.85;77.90
5905;BME280;2978;42.012;24.880;2023-01-25T07:45:58;100219.31;;;3.74;76.97
5905;BME280;2978;42.012;24.880;2023-01-25T07:48:24;100226.00;;;3.71;77.52
5905;BME280;2978;42.012;24.880;2023-01-25T07:50:49;100217.56;;;3.66;77.24
5905;BME280;2978;42.012;24.880;2023-01-25T07:53:34;100221.78;;;3.69;76.22
5905;BME280;2978;42.012;24.880;2023-01-25T07:56:12;100217.56;;;3.66;76.71
5905;BME280;2978;42.012;24.880;2023-01-25T07:58:57;100246.19;;;3.62;76.09
5905;BME280;2978;42.012;24.880;2023-01-25T08:01:26;100233.81;;;3.60;76.03
5905;BME280;2978;42.012;24.880;2023-01-25T08:03:53;100237.78;;;3.57;76.12
5905;BME280;2978;42.012;24.880;2023-01-25T08:06:27;100234.25;;;3.63;76.88
5905;BME280;2978;42.012;24.880;2023-01-25T08:08:55;100235.56;;;3.67;77.03
5905;BME280;2978;42.012;24.880;2023-01-25T08:11:24;100245.66;;;3.73;76.21
5905;BME280;2978;42.012;24.880;2023-01-25T08:13:50;100239.25;;;3.81;76.67
5905;BME280;2978;42.012;24.880;2023-01-25T08:16:18;100239.69;;;3.84;77.16
5905;BME280;2978;42.012;24.880;2023-01-25T08:18:48;100238.69;;;3.85;76.27
5905;BME280;2978;42.012;24.880;2023-01-25T08:21:13;100239.03;;;3.82;76.91
5905;BME280;2978;42.012;24.880;2023-01-25T08:23:39;100237.38;;;3.81;77.69
5905;BME280;2978;42.012;24.880;2023-01-25T08:26:06;100238.59;;;3.79;77.28
5905;BME280;2978;42.012;24.880;2023-01-25T08:28:32;100250.63;;;3.70;77.78
5905;BME280;2978;42.012;24.880;2023-01-25T08:33:30;100246.19;;;3.83;76.78
5905;BME280;2978;42.012;24.880;2023-01-25T08:35:56;100247.34;;;3.95;77.63
5905;BME280;2978;42.012;24.880;2023-01-25T08:38:21;100246.94;;;3.98;76.96
5905;BME280;2978;42.012;24.880;2023-01-25T08:40:47;100240.97;;;4.09;77.24
5905;BME280;2978;42.012;24.880;2023-01-25T08:43:12;100235.22;;;4.25;76.67
5905;BME280;2978;42.012;24.880;2023-01-25T08:45:38;100236.09;;;4.32;76.53
5905;BME280;2978;42.012;24.880;2023-01-25T08:48:04;100228.00;;;4.11;75.65
5905;BME280;2978;42.012;24.880;2023-01-25T08:50:29;100234.53;;;4.17;76.69
5905;BME280;2978;42.012;24.880;2023-01-25T08:52:54;100225.63;;;4.29;75.33
5905;BME280;2978;42.012;24.880;2023-01-25T08:55:20;100227.34;;;4.37;74.97
5905;BME280;2978;42.012;24.880;2023-01-25T08:57:45;100221.03;;;4.30;76.02
5905;BME280;2978;42.012;24.880;2023-01-25T09:00:11;100230.66;;;4.32;75.94
5905;BME280;2978;42.012;24.880;2023-01-25T09:02:37;100230.28;;;4.08;77.32
5905;BME280;2978;42.012;24.880;2023-01-25T09:05:02;100230.00;;;4.03;77.29
5905;BME280;2978;42.012;24.880;2023-01-25T09:07:28;100242.31;;;4.20;77.22
5905;BME280;2978;42.012;24.880;2023-01-25T09:09:56;100220.56;;;4.26;77.60
5905;BME280;2978;42.012;24.880;2023-01-25T09:12:22;100220.13;;;4.23;77.45
5905;BME280;2978;42.012;24.880;2023-01-25T09:14:47;100220.66;;;4.39;76.88
5905;BME280;2978;42.012;24.880;2023-01-25T09:17:13;100221.94;;;4.43;77.56
5905;BME280;2978;42.012;24.880;2023-01-25T09:19:38;100215.59;;;4.36;78.14
5905;BME280;2978;42.012;24.880;2023-01-25T09:22:06;100208.66;;;4.62;77.55
5905;BME280;2978;42.012;24.880;2023-01-25T09:24:51;100208.88;;;4.67;77.10
5905;BME280;2978;42.012;24.880;2023-01-25T09:27:18;100203.22;;;4.62;76.64
5905;BME280;2978;42.012;24.880;2023-01-25T09:29:43;100197.81;;;4.75;76.02
5905;BME280;2978;42.012;24.880;2023-01-25T09:32:09;100185.25;;;4.74;75.96
5905;BME280;2978;42.012;24.880;2023-01-25T09:34:35;100175.59;;;4.71;76.55
5905;BME280;2978;42.012;24.880;2023-01-25T09:37:00;100183.91;;;4.56;76.15
5905;BME280;2978;42.012;24.880;2023-01-25T09:39:26;100177.28;;;4.72;75.04
5905;BME280;2978;42.012;24.880;2023-01-25T09:45:34;100172.16;;;4.56;74.73
5905;BME280;2978;42.012;24.880;2023-01-25T09:51:02;100163.25;;;4.75;74.13
5905;BME280;2978;42.012;24.880;2023-01-25T09:56:21;100148.41;;;4.84;73.60
5905;BME280;2978;42.012;24.880;2023-01-25T09:58:50;100154.47;;;4.80;74.00
5905;BME280;2978;42.012;24.880;2023-01-25T10:04:01;100158.59;;;4.63;73.18
5905;BME280;2978;42.012;24.880;2023-01-25T10:06:37;100150.38;;;4.49;73.62
5905;BME280;2978;42.012;24.880;2023-01-25T10:09:18;100159.19;;;4.58;73.99
5905;BME280;2978;42.012;24.880;2023-01-25T10:11:45;100156.94;;;4.68;73.79
5905;BME280;2978;42.012;24.880;2023-01-25T10:14:16;100149.00;;;4.73;73.34
5905;BME280;2978;42.012;24.880;2023-01-25T10:19:18;100136.25;;;4.87;72.50
5905;BME280;2978;42.012;24.880;2023-01-25T10:25:17;100130.84;;;4.93;72.84
5905;BME280;2978;42.012;24.880;2023-01-25T10:28:12;100111.56;;;5.01;72.63
5905;BME280;2978;42.012;24.880;2023-01-25T10:31:05;100122.47;;;5.08;73.29
5905;BME280;2978;42.012;24.880;2023-01-25T10:33:32;100109.69;;;5.15;73.10
5905;BME280;2978;42.012;24.880;2023-01-25T10:36:01;100109.06;;;5.13;73.19
5905;BME280;2978;42.012;24.880;2023-01-25T10:38:34;100108.25;;;5.19;74.03
5905;BME280;2978;42.012;24.880;2023-01-25T10:43:30;100090.03;;;5.19;72.87
5905;BME280;2978;42.012;24.880;2023-01-25T10:45:55;100082.19;;;4.84;74.26
5905;BME280;2978;42.012;24.880;2023-01-25T10:48:33;100090.19;;;5.05;74.85
5905;BME280;2978;42.012;24.880;2023-01-25T10:50:59;100081.81;;;5.06;74.34
5905;BME280;2978;42.012;24.880;2023-01-25T10:53:38;100078.69;;;5.16;74.50
5905;BME280;2978;42.012;24.880;2023-01-25T10:58:40;100069.25;;;5.18;74.04
5905;BME280;2978;42.012;24.880;2023-01-25T11:01:09;100071.97;;;5.25;74.00
5905;BME280;2978;42.012;24.880;2023-01-25T11:03:41;100064.22;;;5.35;73.27
5905;BME280;2978;42.012;24.880;2023-01-25T11:06:09;100068.81;;;5.15;73.95
5905;BME280;2978;42.012;24.880;2023-01-25T11:08:39;100073.63;;;5.13;73.32
5905;BME280;2978;42.012;24.880;2023-01-25T11:13:50;100065.66;;;5.11;74.01
5905;BME280;2978;42.012;24.880;2023-01-25T11:16:37;100060.19;;;4.79;75.28
5905;BME280;2978;42.012;24.880;2023-01-25T11:19:24;100057.06;;;5.08;74.45
5905;BME280;2978;42.012;24.880;2023-01-25T11:21:52;100045.56;;;5.25;74.19
5905;BME280;2978;42.012;24.880;2023-01-25T11:24:18;100047.03;;;5.34;73.15
5905;BME280;2978;42.012;24.880;2023-01-25T11:26:44;100042.81;;;5.58;71.98
5905;BME280;2978;42.012;24.880;2023-01-25T11:29:17;100041.34;;;5.55;71.86
5905;BME280;2978;42.012;24.880;2023-01-25T11:31:48;100033.16;;;5.62;70.65
5905;BME280;2978;42.012;24.880;2023-01-25T11:34:17;100026.88;;;5.55;70.51
5905;BME280;2978;42.012;24.880;2023-01-25T11:37:22;100017.22;;;5.59;70.57
5905;BME280;2978;42.012;24.880;2023-01-25T11:46:40;100022.25;;;5.62;69.51
5905;BME280;2978;42.012;24.880;2023-01-25T11:52:21;100008.00;;;5.53;70.52
5905;BME280;2978;42.012;24.880;2023-01-25T11:57:36;100007.13;;;5.66;70.05
5905;BME280;2978;42.012;24.880;2023-01-25T12:03:29;100008.41;;;5.70;69.52
5905;BME280;2978;42.012;24.880;2023-01-25T12:06:07;99996.22;;;5.66;68.72
5905;BME280;2978;42.012;24.880;2023-01-25T12:18:01;99974.03;;;5.56;69.55
5905;BME280;2978;42.012;24.880;2023-01-25T12:26:42;99968.25;;;5.77;69.92
5905;BME280;2978;42.012;24.880;2023-01-25T12:32:26;99956.75;;;5.75;69.23
5905;BME280;2978;42.012;24.880;2023-01-25T12:37:42;99957.25;;;5.39;70.57
5905;BME280;2978;42.012;24.880;2023-01-25T12:40:21;99946.13;;;5.54;70.87
5905;BME280;2978;42.012;24.880;2023-01-25T12:42:56;99956.84;;;5.49;71.02
5905;BME280;2978;42.012;24.880;2023-01-25T12:45:30;99954.09;;;5.55;71.39
5905;BME280;2978;42.012;24.880;2023-01-25T12:48:20;99957.22;;;5.59;69.19
5905;BME280;2978;42.012;24.880;2023-01-25T12:50:57;99964.78;;;5.57;70.62
5905;BME280;2978;42.012;24.880;2023-01-25T12:53:26;99953.03;;;5.50;70.32
5905;BME280;2978;42.012;24.880;2023-01-25T12:55:54;99958.25;;;5.58;70.68
5905;BME280;2978;42.012;24.880;2023-01-25T13:06:31;99953.41;;;5.73;69.26
5905;BME280;2978;42.012;24.880;2023-01-25T13:09:32;99951.91;;;5.90;68.09
5905;BME280;2978;42.012;24.880;2023-01-25T13:12:02;99944.34;;;5.92;68.44
5905;BME280;2978;42.012;24.880;2023-01-25T13:14:36;99935.31;;;5.92;68.31
5905;BME280;2978;42.012;24.880;2023-01-25T13:19:50;99944.53;;;5.97;68.41
5905;BME280;2978;42.012;24.880;2023-01-25T13:27:40;99938.66;;;5.94;66.71
5905;BME280;2978;42.012;24.880;2023-01-25T13:35:32;99942.19;;;5.37;69.77
5905;BME280;2978;42.012;24.880;2023-01-25T13:38:01;99942.19;;;5.37;69.56
5905;BME280;2978;42.012;24.880;2023-01-25T13:40:32;99943.22;;;5.36;69.81
5905;BME280;2978;42.012;24.880;2023-01-25T13:43:00;99941.34;;;5.30;69.03
5905;BME280;2978;42.012;24.880;2023-01-25T13:45:28;99947.19;;;5.46;68.89
5905;BME280;2978;42.012;24.880;2023-01-25T13:48:05;99947.16;;;5.53;67.93
5905;BME280;2978;42.012;24.880;2023-01-25T13:50:38;99941.69;;;5.53;67.87
5905;BME280;2978;42.012;24.880;2023-01-25T13:55:42;99941.03;;;5.64;67.74
5905;BME280;2978;42.012;24.880;2023-01-25T13:58:20;99948.78;;;5.73;67.80
5905;BME280;2978;42.012;24.880;2023-01-25T14:03:28;99945.44;;;5.65;68.08
5905;BME280;2978;42.012;24.880;2023-01-25T14:05:55;99937.69;;;5.62;69.31
5905;BME280;2978;42.012;24.880;2023-01-25T14:08:21;99932.09;;;5.44;68.82
5905;BME280;2978;42.012;24.880;2023-01-25T14:10:49;99940.69;;;5.34;69.23
5905;BME280;2978;42.012;24.880;2023-01-25T14:13:15;99928.78;;;5.03;68.92
5905;BME280;2978;42.012;24.880;2023-01-25T14:15:57;99937.19;;;4.95;70.10
5905;BME280;2978;42.012;24.880;2023-01-25T14:18:32;99934.47;;;4.95;69.87
5905;BME280;2978;42.012;24.880;2023-01-25T14:21:11;99929.22;;;4.87;69.51
5905;BME280;2978;42.012;24.880;2023-01-25T14:23:37;99932.16;;;4.85;69.15
5905;BME280;2978;42.012;24.880;2023-01-25T14:26:02;99928.38;;;4.86;69.61
5905;BME280;2978;42.012;24.880;2023-01-25T14:28:28;99929.22;;;4.74;70.55
5905;BME280;2978;42.012;24.880;2023-01-25T14:30:58;99921.47;;;4.84;70.56
5905;BME280;2978;42.012;24.880;2023-01-25T14:33:32;99917.06;;;4.76;69.38
5905;BME280;2978;42.012;24.880;2023-01-25T14:36:11;99924.81;;;4.73;70.44
5905;BME280;2978;42.012;24.880;2023-01-25T14:38:38;99936.34;;;4.88;71.16
5905;BME280;2978;42.012;24.880;2023-01-25T14:43:40;99943.47;;;4.89;70.14
5905;BME280;2978;42.012;24.880;2023-01-25T14:46:34;99941.97;;;5.06;70.12
5905;BME280;2978;42.012;24.880;2023-01-25T14:49:08;99938.84;;;4.96;69.90
5905;BME280;2978;42.012;24.880;2023-01-25T14:54:23;99922.94;;;4.93;71.29
5905;BME280;2978;42.012;24.880;2023-01-25T14:56:53;99928.56;;;4.85;70.80
5905;BME280;2978;42.012;24.880;2023-01-25T15:07:44;99921.63;;;5.15;71.76
5905;BME280;2978;42.012;24.880;2023-01-25T15:15:32;99931.31;;;5.11;72.68
5905;BME280;2978;42.012;24.880;2023-01-25T15:18:42;99935.69;;;5.12;73.16
5905;BME280;2978;42.012;24.880;2023-01-25T15:21:15;99917.06;;;4.89;72.61